Time;durP1;ratioP1;P1;durP2;ratioP2;P2;SDS_P1;SDS_P2;PMS_P1;PMS_P2;Temp;Humidity;BMP_temperature;BMP_pressure;BME280_temperature;BME280_humidity;BME280_pressure;Samples;Min_cycle;Max_cycle;Signal;HPM_P1;HPM_P2
2022/05/20 00:01:04;;;;;;;5.45;4.47;;;23.10;62.10;;;;;;4953101;28;87467;-67
2022/05/20 00:03:31;;;;;;;4.63;4.22;;;23.10;62.10;;;;;;4952754;28;88019;-66
2022/05/20 00:05:58;;;;;;;4.43;3.95;;;23.10;62.10;;;;;;4952454;28;88062;-65
2022/05/20 00:08:23;;;;;;;5.90;4.00;;;23.10;62.10;;;;;;4952459;28;87217;-65
2022/05/20 00:10:50;;;;;;;4.60;3.92;;;23.10;62.10;;;;;;4952679;28;87480;-67
2022/05/20 00:13:16;;;;;;;6.00;4.15;;;23.10;62.20;;;;;;4952140;28;88717;-66
2022/05/20 00:15:42;;;;;;;4.60;4.00;;;23.10;62.20;;;;;;4953380;28;88853;-66
2022/05/20 00:18:08;;;;;;;4.53;4.13;;;23.10;62.20;;;;;;4952491;28;87028;-66
2022/05/20 00:20:34;;;;;;;4.15;3.85;;;23.10;62.20;;;;;;4952701;28;87830;-66
2022/05/20 00:22:59;;;;;;;4.55;4.15;;;23.10;62.10;;;;;;4953003;28;88607;-66
2022/05/20 00:28:09;;;;;;;4.18;3.75;;;23.10;62.10;;;;;;4953505;28;87835;-65
2022/05/20 00:30:35;;;;;;;4.07;3.78;;;23.10;62.20;;;;;;4953342;28;86742;-66
2022/05/20 00:33:01;;;;;;;4.38;3.92;;;23.10;61.80;;;;;;4953252;28;87726;-66
2022/05/20 00:35:27;;;;;;;4.13;3.72;;;23.10;61.90;;;;;;4953538;28;88096;-66
2022/05/20 00:37:53;;;;;;;4.68;4.15;;;23.10;61.90;;;;;;4952634;28;87987;-66
2022/05/20 00:40:23;;;;;;;4.75;3.97;;;23.10;61.90;;;;;;4953527;28;87647;-65
2022/05/20 00:42:49;;;;;;;4.25;3.85;;;23.00;61.80;;;;;;4960928;28;88474;-66
2022/05/20 00:45:16;;;;;;;4.07;3.67;;;23.00;61.90;;;;;;4972390;28;87754;-66
2022/05/20 00:47:42;;;;;;;4.35;3.88;;;23.10;61.80;;;;;;4972671;28;88053;-65
2022/05/20 00:50:18;;;;;;;4.38;3.88;;;23.00;61.80;;;;;;4971868;28;88503;-66
2022/05/20 00:52:48;;;;;;;4.47;4.07;;;23.00;61.60;;;;;;4972986;28;88087;-67
2022/05/20 00:55:16;;;;;;;;;;;23.00;61.90;;;;;;4971788;28;88772;-66
2022/05/20 00:57:52;;;;;;;4.15;3.80;;;23.00;62.00;;;;;;4972914;28;87237;-66
2022/05/20 01:00:25;;;;;;;4.15;3.75;;;23.00;62.00;;;;;;4971074;28;86979;-65
2022/05/20 01:02:55;;;;;;;4.38;3.97;;;23.00;61.90;;;;;;4972121;28;88403;-66
2022/05/20 01:05:35;;;;;;;5.40;3.85;;;23.00;61.90;;;;;;4971922;28;90746;-66
2022/05/20 01:08:02;;;;;;;3.67;3.38;;;23.00;61.90;;;;;;4972270;28;86879;-65
2022/05/20 01:10:29;;;;;;;5.07;3.92;;;23.00;61.80;;;;;;4971882;28;87127;-66
2022/05/20 01:12:56;;;;;;;3.90;3.60;;;23.00;61.80;;;;;;4972211;28;87993;-65
2022/05/20 01:15:22;;;;;;;4.30;3.90;;;23.00;61.90;;;;;;4972222;28;87891;-66
2022/05/20 01:17:51;;;;;;;4.20;3.90;;;23.00;61.70;;;;;;4968588;28;87640;-66
2022/05/20 01:20:22;;;;;;;3.90;3.60;;;23.00;61.90;;;;;;4959072;28;87992;-66
2022/05/20 01:22:54;;;;;;;4.18;3.88;;;23.00;61.80;;;;;;4968798;28;89699;-66
2022/05/20 01:25:25;;;;;;;4.00;3.70;;;23.00;61.90;;;;;;4952428;28;87013;-66
2022/05/20 01:27:51;;;;;;;4.03;3.72;;;23.00;61.80;;;;;;4951023;28;87976;-65
2022/05/20 01:30:20;;;;;;;3.80;3.50;;;23.00;61.90;;;;;;4952343;28;87911;-66
2022/05/20 01:32:46;;;;;;;3.95;3.60;;;23.00;62.50;;;;;;4951282;28;88507;-66
2022/05/20 01:35:17;;;;;;;3.88;3.58;;;23.00;61.80;;;;;;4951217;28;87822;-65
2022/05/20 01:37:42;;;;;;;4.20;3.80;;;23.00;61.70;;;;;;4951654;28;87977;-66
2022/05/20 01:40:11;;;;;;;3.92;3.55;;;23.00;61.90;;;;;;4951175;28;87951;-66
2022/05/20 01:43:01;;;;;;;3.70;3.40;;;23.00;61.80;;;;;;4951674;28;89092;-66
2022/05/20 01:45:42;;;;;;;4.07;3.60;;;23.00;61.70;;;;;;4952750;28;87661;-65
2022/05/20 01:48:27;;;;;;;4.07;3.78;;;23.00;61.90;;;;;;4951506;28;88065;-65
2022/05/20 01:50:55;;;;;;;4.13;3.80;;;23.00;62.10;;;;;;4951592;28;86883;-66
2022/05/20 01:53:31;;;;;;;4.15;3.85;;;23.00;61.80;;;;;;4951651;28;89894;-66
2022/05/20 01:56:04;;;;;;;4.25;3.83;;;23.00;61.80;;;;;;4952051;28;88116;-65
2022/05/20 01:58:43;;;;;;;4.28;3.78;;;23.00;61.60;;;;;;4950466;28;87863;-66
2022/05/20 02:01:12;;;;;;;;;;;23.00;61.80;;;;;;4952354;28;87444;-66
2022/05/20 02:03:38;;;;;;;;;;;22.90;61.70;;;;;;4954360;28;87693;-66
2022/05/20 02:06:18;;;;;;;3.38;3.17;;;23.00;61.80;;;;;;4952823;28;87976;-65
2022/05/20 02:09:00;;;;;;;4.00;3.67;;;22.90;61.70;;;;;;4951207;28;87524;-66
2022/05/20 02:11:54;;;;;;;3.80;3.40;;;23.00;62.50;;;;;;4951959;28;86926;-66
2022/05/20 02:14:37;;;;;;;5.05;4.18;;;22.90;61.80;;;;;;4951228;28;87870;-65
2022/05/20 02:17:13;;;;;;;4.25;3.85;;;22.90;62.60;;;;;;4949795;28;89754;-65
2022/05/20 02:19:41;;;;;;;6.18;3.72;;;22.90;61.80;;;;;;4951083;28;87921;-65
2022/05/20 02:22:13;;;;;;;4.30;3.90;;;22.90;61.70;;;;;;4950970;28;87533;-65
2022/05/20 02:24:41;;;;;;;3.90;3.50;;;22.90;61.90;;;;;;4960901;28;88132;-65
2022/05/20 02:27:12;;;;;;;3.40;3.10;;;22.90;62.10;;;;;;4970491;28;87818;-65
2022/05/20 02:29:48;;;;;;;4.75;3.50;;;22.90;62.10;;;;;;4971558;28;87874;-65
2022/05/20 02:32:28;;;;;;;4.38;3.53;;;22.90;62.10;;;;;;4970273;28;87340;-66
2022/05/20 02:34:53;;;;;;;;;;;22.90;62.00;;;;;;4970012;28;87647;-66
2022/05/20 02:37:26;;;;;;;3.75;3.45;;;22.90;62.00;;;;;;4971886;28;87435;-66
2022/05/20 02:39:53;;;;;;;4.50;4.10;;;22.90;62.00;;;;;;4970875;28;88019;-66
2022/05/20 02:42:19;;;;;;;3.63;3.33;;;22.90;62.00;;;;;;4970458;28;88253;-66
2022/05/20 02:44:45;;;;;;;3.78;3.40;;;22.90;62.10;;;;;;4970721;28;89052;-66
2022/05/20 02:47:12;;;;;;;3.63;3.33;;;22.90;62.00;;;;;;4970196;28;88596;-65
2022/05/20 02:49:37;;;;;;;3.92;3.55;;;22.90;62.00;;;;;;4969833;28;88054;-66
2022/05/20 02:52:04;;;;;;;3.78;3.47;;;22.90;61.90;;;;;;4969738;28;87497;-66
2022/05/20 02:54:30;;;;;;;3.65;3.35;;;22.90;61.90;;;;;;4968911;28;89971;-65
2022/05/20 02:56:56;;;;;;;3.55;3.25;;;22.90;61.90;;;;;;4968734;28;89549;-66
2022/05/20 03:04:51;;;;;;;3.95;3.65;;;22.90;61.90;;;;;;4951293;28;87939;-65
2022/05/20 03:07:17;;;;;;;3.45;3.17;;;22.90;61.80;;;;;;4965618;28;87839;-65
2022/05/20 03:09:42;;;;;;;4.10;3.70;;;22.90;61.70;;;;;;4970424;28;88459;-66
2022/05/20 03:12:10;;;;;;;3.95;3.55;;;22.90;61.80;;;;;;4970573;28;87914;-65
2022/05/20 03:14:36;;;;;;;3.70;3.40;;;22.90;61.70;;;;;;4970628;28;89003;-65
2022/05/20 03:17:02;;;;;;;3.97;3.50;;;22.90;61.70;;;;;;4970551;28;87348;-66
2022/05/20 03:19:31;;;;;;;3.90;3.60;;;22.90;61.70;;;;;;4962683;28;87194;-66
2022/05/20 03:22:01;;;;;;;3.25;3.05;;;22.90;61.80;;;;;;4952697;28;90096;-66
2022/05/20 03:24:28;;;;;;;4.32;3.92;;;22.90;61.70;;;;;;4969929;28;88089;-66
2022/05/20 03:26:54;;;;;;;3.70;3.40;;;22.90;61.70;;;;;;4961478;28;87885;-66
2022/05/20 03:29:19;;;;;;;3.72;3.42;;;22.90;61.60;;;;;;4951115;28;88013;-65
2022/05/20 03:31:47;;;;;;;3.75;3.45;;;22.80;61.50;;;;;;4951153;28;87726;-65
2022/05/20 03:34:12;;;;;;;3.67;3.38;;;22.80;61.60;;;;;;4950441;28;88751;-65
2022/05/20 03:36:42;;;;;;;3.20;2.97;;;22.90;61.80;;;;;;4952781;28;89079;-66
2022/05/20 03:39:10;;;;;;;3.47;3.17;;;22.80;61.60;;;;;;4968523;28;87284;-66
2022/05/20 03:41:37;;;;;;;3.38;3.08;;;22.80;61.80;;;;;;4972669;28;88044;-65
2022/05/20 03:44:05;;;;;;;3.80;3.50;;;22.80;61.70;;;;;;4973586;28;88167;-65
2022/05/20 03:46:31;;;;;;;3.50;3.20;;;22.80;61.80;;;;;;4956364;28;89609;-66
2022/05/20 03:48:59;;;;;;;3.30;3.00;;;22.80;61.90;;;;;;4954367;28;87689;-66
2022/05/20 03:51:25;;;;;;;4.35;3.97;;;22.80;62.00;;;;;;4954122;28;86457;-66
2022/05/20 03:53:50;;;;;;;4.00;3.60;;;22.80;61.70;;;;;;4953528;28;87140;-65
2022/05/20 03:56:16;;;;;;;3.63;3.33;;;22.80;61.90;;;;;;4953750;28;88171;-65
2022/05/20 03:58:42;;;;;;;3.45;3.15;;;22.80;61.70;;;;;;4961197;28;88917;-65
2022/05/20 04:03:56;;;;;;;3.80;3.50;;;22.80;61.80;;;;;;4972586;28;87604;-65
2022/05/20 04:06:22;;;;;;;3.65;3.35;;;22.80;61.80;;;;;;4972087;28;87925;-66
2022/05/20 04:08:48;;;;;;;3.38;3.08;;;22.80;61.70;;;;;;4972402;28;88073;-66
2022/05/20 04:11:15;;;;;;;4.00;3.40;;;22.80;61.80;;;;;;4971876;28;87128;-66
2022/05/20 04:13:42;;;;;;;3.70;3.40;;;22.80;61.90;;;;;;4967425;28;87458;-66
2022/05/20 04:16:10;;;;;;;3.63;3.33;;;22.90;61.90;;;;;;4953178;28;87551;-66
2022/05/20 04:18:37;;;;;;;3.33;3.03;;;22.80;61.90;;;;;;4954152;28;87939;-65
2022/05/20 04:21:04;;;;;;;3.70;3.40;;;22.80;61.90;;;;;;4967150;28;87318;-65
2022/05/20 04:23:30;;;;;;;3.47;3.17;;;22.80;62.60;;;;;;4971856;28;88807;-65
2022/05/20 04:25:55;;;;;;;3.60;3.30;;;22.80;61.70;;;;;;4971749;28;88399;-66
2022/05/20 04:28:21;;;;;;;3.80;3.50;;;22.80;61.90;;;;;;4972158;28;86966;-66
2022/05/20 04:30:47;;;;;;;3.38;3.08;;;22.80;62.00;;;;;;4972240;28;87405;-65
2022/05/20 04:33:13;;;;;;;3.20;3.00;;;22.80;61.90;;;;;;4966709;28;88176;-65
2022/05/20 04:35:39;;;;;;;3.83;3.53;;;22.80;61.80;;;;;;4973198;28;87772;-66
2022/05/20 04:38:05;;;;;;;4.15;3.78;;;22.80;61.80;;;;;;4971728;28;87763;-66
2022/05/20 04:40:31;;;;;;;4.15;3.78;;;22.80;61.80;;;;;;4966999;28;86952;-65
2022/05/20 04:48:26;;;;;;;3.58;3.20;;;22.80;61.90;;;;;;4957043;28;88890;-65
2022/05/20 04:50:52;;;;;;;4.10;3.70;;;22.80;61.70;;;;;;4952034;28;86918;-65
2022/05/20 04:56:03;;;;;;;2.95;2.75;;;22.80;61.90;;;;;;4960522;28;88212;-64
2022/05/20 04:58:29;;;;;;;3.45;3.15;;;22.90;61.70;;;;;;4963922;28;87615;-65
2022/05/20 05:00:56;;;;;;;3.30;3.00;;;22.90;61.70;;;;;;4962334;28;90596;-64
2022/05/20 05:03:22;;;;;;;2.90;2.70;;;22.80;61.60;;;;;;4972241;28;88645;-65
2022/05/20 05:05:47;;;;;;;3.17;2.97;;;22.80;61.60;;;;;;4970230;28;89887;-64
2022/05/20 05:08:16;;;;;;;3.10;2.90;;;22.80;61.60;;;;;;4960950;28;87678;-64
2022/05/20 05:10:43;;;;;;;3.42;3.13;;;22.80;61.60;;;;;;4970505;28;87942;-65
2022/05/20 05:13:09;;;;;;;3.63;3.33;;;22.80;61.60;;;;;;4961560;28;88569;-65
2022/05/20 05:15:36;;;;;;;3.30;3.10;;;22.90;61.50;;;;;;4955262;28;88233;-64
2022/05/20 05:18:14;;;;;;;3.63;3.33;;;22.80;62.50;;;;;;4961049;28;87447;-65
2022/05/20 05:20:45;;;;;;;3.47;3.27;;;22.80;61.70;;;;;;4961496;28;87585;-65
2022/05/20 05:23:12;;;;;;;3.47;3.17;;;22.80;61.60;;;;;;4953674;28;88076;-64
2022/05/20 05:25:37;;;;;;;3.55;3.25;;;22.80;61.80;;;;;;4959336;28;87739;-65
2022/05/20 05:28:05;;;;;;;3.25;3.05;;;22.80;61.80;;;;;;4956057;28;88242;-64
2022/05/20 05:30:31;;;;;;;3.17;2.97;;;22.90;61.80;;;;;;4955820;28;86864;-65
2022/05/20 05:32:57;;;;;;;3.10;2.90;;;22.90;61.70;;;;;;4952131;28;89679;-65
2022/05/20 05:35:25;;;;;;;3.60;3.30;;;22.90;61.90;;;;;;4956966;28;87927;-64
2022/05/20 05:37:51;;;;;;;4.75;3.00;;;22.90;61.60;;;;;;4956431;28;88453;-64
2022/05/20 05:40:20;;;;;;;4.47;3.55;;;22.90;61.90;;;;;;4970729;28;87944;-65
2022/05/20 05:42:47;;;;;;;4.35;3.58;;;22.90;61.90;;;;;;4970655;28;87589;-65
2022/05/20 05:45:16;;;;;;;3.78;3.47;;;22.90;62.00;;;;;;4951847;28;88310;-65
2022/05/20 05:47:43;;;;;;;3.97;3.58;;;22.90;62.20;;;;;;4950883;28;88085;-65
2022/05/20 05:50:09;;;;;;;4.75;4.00;;;22.90;62.20;;;;;;4958687;28;88029;-65
2022/05/20 05:52:35;;;;;;;4.90;4.00;;;22.90;62.40;;;;;;4959251;28;87163;-65
2022/05/20 05:55:01;;;;;;;4.20;3.80;;;22.90;63.30;;;;;;4950541;28;87783;-65
2022/05/20 05:57:28;;;;;;;4.47;3.47;;;22.90;62.40;;;;;;4950357;28;87721;-65
2022/05/20 05:59:55;;;;;;;6.25;3.90;;;23.00;62.60;;;;;;4948968;28;88012;-64
2022/05/20 06:02:21;;;;;;;4.80;3.78;;;23.00;62.50;;;;;;4949669;28;89706;-65
2022/05/20 06:04:49;;;;;;;5.10;4.00;;;22.90;62.70;;;;;;4952093;28;89000;-65
2022/05/20 06:07:14;;;;;;;4.57;3.72;;;22.90;62.70;;;;;;4959610;28;88039;-65
2022/05/20 06:09:40;;;;;;;5.72;3.35;;;23.00;61.60;;;;;;4949583;28;90092;-65
2022/05/20 06:12:07;;;;;;;13.48;10.35;;;23.00;59.50;;;;;;4949038;28;88570;-66
2022/05/20 06:14:33;;;;;;;11.57;6.13;;;22.90;61.30;;;;;;4950094;28;88176;-65
2022/05/20 06:16:58;;;;;;;5.55;4.70;;;22.90;60.60;;;;;;4963587;28;87767;-65
2022/05/20 06:19:25;;;;;;;5.95;4.28;;;22.90;60.40;;;;;;4968275;28;86479;-65
2022/05/20 06:21:51;;;;;;;12.55;9.75;;;22.90;60.30;;;;;;4956020;28;88881;-65
2022/05/20 06:24:17;;;;;;;23.70;18.42;;;22.90;61.20;;;;;;4952924;28;87986;-68
2022/05/20 06:26:43;;;;;;;23.15;14.68;;;22.90;61.60;;;;;;4956401;28;88848;-64
2022/05/20 06:29:08;;;;;;;25.23;18.08;;;22.90;61.40;;;;;;4960355;28;87282;-65
2022/05/20 06:31:34;;;;;;;29.60;22.55;;;22.90;61.40;;;;;;4959367;28;87452;-65
2022/05/20 06:34:01;;;;;;;25.17;21.23;;;22.90;61.30;;;;;;4964256;28;87309;-65
2022/05/20 06:41:56;;;;;;;27.40;22.35;;;22.90;61.40;;;;;;4949842;28;87337;-65
2022/05/20 06:44:24;;;;;;;25.92;20.20;;;22.90;61.60;;;;;;4947573;28;87531;-65
2022/05/20 06:46:50;;;;;;;27.60;20.45;;;22.90;61.70;;;;;;4948551;28;87596;-65
2022/05/20 06:49:16;;;;;;;24.77;20.13;;;22.90;61.80;;;;;;4962835;28;87798;-66
2022/05/20 06:51:42;;;;;;;27.55;20.00;;;22.90;61.80;;;;;;4968860;28;89246;-65
2022/05/20 06:54:10;;;;;;;24.98;20.55;;;22.80;61.70;;;;;;4966647;28;91596;-66
2022/05/20 06:56:36;;;;;;;27.83;20.55;;;22.80;61.60;;;;;;4955111;28;87707;-65
2022/05/20 06:59:04;;;;;;;22.58;18.92;;;22.90;61.80;;;;;;4963565;28;87811;-65
2022/05/20 07:01:30;;;;;;;25.98;18.60;;;22.90;61.80;;;;;;4965845;28;87789;-66
2022/05/20 07:03:56;;;;;;;31.95;23.17;;;22.80;62.10;;;;;;4949300;28;87996;-66
2022/05/20 07:06:22;;;;;;;22.88;16.98;;;22.90;63.00;;;;;;4966015;28;87075;-65
2022/05/20 07:08:48;;;;;;;20.65;16.88;;;22.90;62.70;;;;;;4967650;28;87505;-65
2022/05/20 07:11:20;;;;;;;25.27;18.90;;;22.90;62.70;;;;;;4954063;28;88178;-66
2022/05/20 07:13:47;;;;;;;22.88;18.02;;;22.90;62.70;;;;;;4914635;28;88204;-66
2022/05/20 07:16:13;;;;;;;39.95;18.45;;;22.90;62.70;;;;;;4963739;28;88470;-65
2022/05/20 07:18:39;;;;;;;19.95;14.48;;;22.90;62.80;;;;;;4955159;28;87889;-65
2022/05/20 07:21:05;;;;;;;59.00;27.25;;;22.90;62.70;;;;;;4959666;28;87660;-66
2022/05/20 07:23:31;;;;;;;47.92;23.67;;;22.90;63.20;;;;;;4951527;28;88107;-65
2022/05/20 07:25:56;;;;;;;40.50;20.73;;;22.90;63.40;;;;;;4956172;28;87621;-67
2022/05/20 07:28:23;;;;;;;49.13;21.67;;;22.90;63.40;;;;;;4955244;28;87506;-65
2022/05/20 07:30:50;;;;;;;44.75;21.60;;;22.90;63.60;;;;;;4949500;28;88143;-65
2022/05/20 07:33:18;;;;;;;43.40;23.67;;;22.90;63.60;;;;;;4955127;28;88238;-66
2022/05/20 07:35:43;;;;;;;41.55;24.45;;;22.90;64.00;;;;;;4968229;28;87362;-66
2022/05/20 07:38:09;;;;;;;41.58;22.70;;;22.90;64.10;;;;;;4957535;28;90434;-65
2022/05/20 07:40:35;;;;;;;36.72;21.25;;;22.90;64.20;;;;;;4960197;28;90203;-66
2022/05/20 07:43:01;;;;;;;35.20;20.48;;;22.90;64.70;;;;;;4971645;28;88901;-65
2022/05/20 07:45:27;;;;;;;31.45;20.83;;;22.90;64.40;;;;;;4962202;28;87939;-65
2022/05/20 07:47:53;;;;;;;34.20;21.95;;;22.90;65.10;;;;;;4959026;28;88101;-65
2022/05/20 07:50:19;;;;;;;30.35;18.60;;;23.00;65.70;;;;;;4964560;28;88101;-66
2022/05/20 07:55:36;;;;;;;26.15;19.20;;;22.90;64.50;;;;;;4955810;28;88006;-66
2022/05/20 07:58:03;;;;;;;26.50;21.92;;;22.90;66.00;;;;;;4952907;28;87348;-66
2022/05/20 08:00:30;;;;;;;29.73;21.17;;;23.00;66.20;;;;;;4951949;28;87694;-65
2022/05/20 08:03:00;;;;;;;28.20;19.25;;;22.90;66.20;;;;;;4952768;28;88330;-66
2022/05/20 08:05:28;;;;;;;32.90;19.75;;;22.90;65.80;;;;;;4971536;28;88349;-66
2022/05/20 08:08:00;;;;;;;30.65;20.02;;;23.00;66.20;;;;;;4958618;28;90913;-65
2022/05/20 08:10:27;;;;;;;25.33;18.20;;;22.90;66.10;;;;;;4953315;28;87940;-65
2022/05/20 08:12:53;;;;;;;24.60;18.05;;;23.00;66.10;;;;;;4959120;28;90795;-66
2022/05/20 08:15:19;;;;;;;29.48;18.17;;;23.00;65.80;;;;;;4965631;28;87345;-66
2022/05/20 08:17:45;;;;;;;25.90;16.77;;;23.00;66.20;;;;;;4955628;28;88030;-66
2022/05/20 08:20:22;;;;;;;22.30;16.85;;;23.00;66.00;;;;;;4951331;28;90189;-66
2022/05/20 08:22:51;;;;;;;29.02;16.85;;;23.00;66.50;;;;;;4958782;28;88281;-66
2022/05/20 08:25:16;;;;;;;24.17;17.73;;;23.00;66.50;;;;;;4963939;28;87820;-65
2022/05/20 08:27:42;;;;;;;27.58;17.88;;;23.00;66.40;;;;;;4955245;28;87614;-66
2022/05/20 08:30:11;;;;;;;22.20;15.65;;;23.00;66.60;;;;;;4949119;28;89174;-66
2022/05/20 08:32:37;;;;;;;;;;;23.00;66.10;;;;;;4956823;28;88250;-64
2022/05/20 08:35:04;;;;;;;25.15;18.98;;;23.00;66.80;;;;;;4956398;28;87300;-66
2022/05/20 08:37:31;;;;;;;27.95;18.23;;;23.00;67.00;;;;;;4957155;28;88369;-66
2022/05/20 08:39:56;;;;;;;28.48;18.83;;;23.00;66.70;;;;;;4968284;28;87595;-65
2022/05/20 08:42:27;;;;;;;26.70;19.63;;;23.00;66.90;;;;;;4966646;28;88155;-66
2022/05/20 08:44:53;;;;;;;24.45;18.75;;;23.00;66.80;;;;;;4954250;28;87732;-66
2022/05/20 08:47:23;;;;;;;27.35;20.48;;;23.00;67.40;;;;;;4951136;28;86710;-66
2022/05/20 08:49:53;;;;;;;;;;;23.00;66.80;;;;;;4962375;28;88494;-66
2022/05/20 08:52:19;;;;;;;30.02;19.63;;;23.00;66.30;;;;;;4962605;28;88482;-66
2022/05/20 08:54:45;;;;;;;31.65;19.73;;;23.00;66.50;;;;;;4963797;28;89154;-66
2022/05/20 08:57:28;;;;;;;23.58;17.45;;;23.00;66.60;;;;;;4967323;28;87360;-66
2022/05/20 08:59:54;;;;;;;25.27;16.95;;;23.00;66.40;;;;;;4969108;28;88389;-66
2022/05/20 09:02:21;;;;;;;25.88;16.60;;;23.00;66.40;;;;;;4953450;28;88196;-66
2022/05/20 09:04:48;;;;;;;21.60;15.82;;;23.00;66.30;;;;;;4956463;28;86866;-66
2022/05/20 09:07:16;;;;;;;22.98;16.80;;;23.00;66.50;;;;;;4950225;28;87849;-66
2022/05/20 09:09:49;;;;;;;22.48;15.95;;;23.00;66.70;;;;;;4954124;28;90456;-66
2022/05/20 09:12:36;;;;;;;25.77;17.35;;;23.00;66.40;;;;;;4957578;28;88037;-66
2022/05/20 09:18:11;;;;;;;22.23;14.60;;;23.00;66.70;;;;;;4950047;28;87005;-66
2022/05/20 09:20:53;;;;;;;21.38;14.57;;;23.00;66.80;;;;;;4949225;28;89419;-66
2022/05/20 09:23:21;;;;;;;23.65;14.88;;;23.00;67.40;;;;;;4950925;28;88246;-66
2022/05/20 09:26:01;;;;;;;25.92;16.15;;;23.00;66.80;;;;;;4952527;28;87033;-66
2022/05/20 09:28:33;;;;;;;21.83;15.50;;;23.00;67.70;;;;;;4951354;28;87831;-66
2022/05/20 09:31:13;;;;;;;29.30;18.77;;;23.00;67.50;;;;;;4951214;28;87377;-66
2022/05/20 09:33:39;;;;;;;23.73;18.60;;;23.00;67.70;;;;;;4951030;28;87988;-66
2022/05/20 09:36:05;;;;;;;26.80;17.70;;;23.00;67.90;;;;;;4967713;28;87400;-66
2022/05/20 09:38:40;;;;;;;23.88;15.80;;;23.00;68.00;;;;;;4969885;28;86452;-66
2022/05/20 09:41:15;;;;;;;24.88;15.52;;;23.00;68.10;;;;;;4950190;28;88881;-66
2022/05/20 09:43:45;;;;;;;26.00;16.70;;;23.00;67.40;;;;;;4949815;28;89062;-66
2022/05/20 09:46:29;;;;;;;26.58;17.52;;;23.00;68.60;;;;;;4949545;28;88761;-66
2022/05/20 09:49:04;;;;;;;29.67;20.98;;;23.00;68.80;;;;;;4951451;28;87557;-66
2022/05/20 09:52:01;;;;;;;25.67;18.52;;;23.00;70.80;;;;;;4951535;28;88214;-66
2022/05/20 09:54:41;;;;;;;30.40;20.27;;;23.00;70.10;;;;;;4949515;28;88256;-65
2022/05/20 09:57:11;;;;;;;28.02;19.60;;;23.00;70.90;;;;;;4955545;28;87254;-65
2022/05/20 10:00:07;;;;;;;24.73;19.38;;;23.00;70.40;;;;;;4970084;28;88124;-66
2022/05/20 10:03:05;;;;;;;26.73;18.80;;;23.00;70.10;;;;;;4950556;28;88252;-65
2022/05/20 10:05:41;;;;;;;33.22;21.48;;;23.00;70.20;;;;;;4938146;28;88084;-65
2022/05/20 10:08:27;;;;;;;28.45;18.77;;;23.00;70.30;;;;;;4950702;28;87635;-65
2022/05/20 10:11:19;;;;;;;32.00;20.55;;;23.10;70.00;;;;;;4950575;28;87704;-65
2022/05/20 10:14:04;;;;;;;36.28;25.63;;;23.00;69.80;;;;;;4950317;28;88799;-65
2022/05/20 10:16:53;;;;;;;38.88;25.92;;;23.00;70.60;;;;;;4951205;28;88259;-66
2022/05/20 10:19:31;;;;;;;40.13;24.33;;;23.00;70.50;;;;;;4950519;28;87469;-65
2022/05/20 10:22:06;;;;;;;37.83;23.83;;;23.00;70.40;;;;;;4948918;28;89844;-66
2022/05/20 10:25:01;;;;;;;38.13;24.17;;;23.00;70.60;;;;;;4950050;28;88398;-65
2022/05/20 10:27:45;;;;;;;35.65;23.02;;;23.00;70.70;;;;;;4950038;28;86987;-65
2022/05/20 10:33:07;;;;;;;35.47;22.05;;;23.10;71.20;;;;;;4950656;28;86999;-66
2022/05/20 10:35:38;;;;;;;40.05;23.02;;;23.10;71.90;;;;;;4949194;28;89277;-67
2022/05/20 10:38:49;;;;;;;38.13;23.80;;;23.10;71.90;;;;;;4950668;28;87954;-66
2022/05/20 10:41:26;;;;;;;34.50;22.73;;;23.10;71.90;;;;;;4950268;28;88051;-66
2022/05/20 10:50:21;;;;;;;33.28;21.13;;;23.10;71.20;;;;;;4952921;28;87828;-66
2022/05/20 10:53:01;;;;;;;33.40;21.05;;;23.10;71.20;;;;;;4950956;28;87859;-65
2022/05/20 10:55:43;;;;;;;30.20;20.60;;;23.10;71.00;;;;;;4949665;28;87391;-66
2022/05/20 10:58:23;;;;;;;31.08;19.42;;;23.10;71.10;;;;;;4950807;28;87679;-66
2022/05/20 11:00:52;;;;;;;32.65;20.85;;;23.10;71.40;;;;;;4949127;28;87436;-65
2022/05/20 11:03:17;;;;;;;29.65;18.30;;;23.10;71.60;;;;;;4966574;28;87517;-66
2022/05/20 11:06:13;;;;;;;35.42;21.60;;;23.10;71.60;;;;;;4966336;28;88370;-65
2022/05/20 11:09:17;;;;;;;36.22;21.17;;;23.10;71.80;;;;;;4966371;28;89143;-66
2022/05/20 11:12:01;;;;;;;31.65;19.90;;;23.10;72.10;;;;;;4957360;28;88423;-65
2022/05/20 11:14:35;;;;;;;39.67;22.10;;;23.10;71.80;;;;;;4963607;28;87902;-66
2022/05/20 11:17:24;;;;;;;34.45;20.83;;;23.10;72.20;;;;;;4969331;28;88113;-66
2022/05/20 11:20:23;;;;;;;33.67;20.48;;;23.10;71.40;;;;;;4969614;28;88074;-66
2022/05/20 11:23:10;;;;;;;33.80;20.58;;;23.00;72.40;;;;;;4969412;28;87774;-66
2022/05/20 11:25:42;;;;;;;37.60;20.27;;;23.10;72.20;;;;;;4968574;28;88025;-67
2022/05/20 11:28:14;;;;;;;34.30;20.10;;;23.10;72.00;;;;;;4950513;28;87081;-66
2022/05/20 11:30:42;;;;;;;33.00;19.50;;;23.10;72.60;;;;;;4950633;28;88096;-66
2022/05/20 11:33:17;;;;;;;33.17;19.90;;;23.00;72.50;;;;;;4948158;28;90625;-67
2022/05/20 11:36:05;;;;;;;38.55;19.65;;;23.00;71.80;;;;;;4948979;28;88639;-66
2022/05/20 11:38:40;;;;;;;35.38;18.73;;;23.00;72.20;;;;;;4949186;28;88060;-66
2022/05/20 11:41:42;;;;;;;37.97;20.10;;;23.00;72.20;;;;;;4948400;28;87674;-66
2022/05/20 11:44:46;;;;;;;32.10;18.27;;;23.00;72.50;;;;;;4961708;28;88503;-66
2022/05/20 11:47:39;;;;;;;30.15;17.38;;;23.00;71.90;;;;;;4964954;28;87630;-67
2022/05/20 11:50:34;;;;;;;31.83;19.02;;;23.00;72.10;;;;;;4949906;28;86925;-67
2022/05/20 11:53:08;;;;;;;32.40;19.85;;;23.00;73.90;;;;;;4950234;28;87988;-66
2022/05/20 11:55:58;;;;;;;34.10;21.83;;;23.10;73.70;;;;;;4949988;28;87209;-67
2022/05/20 11:58:31;;;;;;;35.28;20.10;;;23.10;74.60;;;;;;4953312;28;87333;-67
2022/05/20 12:00:58;;;;;;;97.55;33.05;;;23.10;75.10;;;;;;4952228;28;87341;-66
2022/05/20 12:04:06;;;;;;;57.50;25.83;;;23.10;74.80;;;;;;4956818;28;89298;-66
2022/05/20 12:06:18;;;;;;;67.97;26.67;;;23.00;74.10;;;;;;4955641;28;89089;-67
2022/05/20 12:08:45;;;;;;;54.85;22.73;;;23.00;74.60;;;;;;4959574;28;86896;-66
2022/05/20 12:11:23;;;;;;;57.92;23.90;;;23.00;73.90;;;;;;4967817;28;87681;-66
2022/05/20 12:14:14;;;;;;;56.42;22.05;;;23.00;73.50;;;;;;4953031;28;88636;-67
2022/05/20 12:16:58;;;;;;;40.78;15.70;;;23.00;74.00;;;;;;4952364;28;88156;-67
2022/05/20 12:25:39;;;;;;;28.27;11.13;;;23.00;74.90;;;;;;4952557;28;88026;-66
2022/05/20 12:28:27;;;;;;;22.45;8.60;;;23.00;74.70;;;;;;4952896;28;87509;-67
2022/05/20 12:31:11;;;;;;;19.88;8.48;;;23.00;75.10;;;;;;4952649;28;88820;-67
2022/05/20 12:34:14;;;;;;;14.68;5.93;;;23.00;74.80;;;;;;4952244;28;88187;-67
2022/05/20 12:36:43;;;;;;;18.65;7.25;;;23.00;75.20;;;;;;4951842;28;88172;-67
2022/05/20 12:39:14;;;;;;;;;;;23.00;74.50;;;;;;4952495;28;87678;-66
2022/05/20 12:41:49;;;;;;;12.07;5.10;;;23.00;74.60;;;;;;4953236;28;87717;-67
2022/05/20 12:44:18;;;;;;;14.88;6.20;;;23.00;74.60;;;;;;4950276;28;90171;-67
2022/05/20 12:47:02;;;;;;;19.23;5.60;;;23.00;74.30;;;;;;4952767;28;87605;-66
2022/05/20 12:49:37;;;;;;;16.48;8.05;;;23.00;74.50;;;;;;4952671;28;87541;-66
2022/05/20 12:52:15;;;;;;;14.68;7.78;;;23.00;73.60;;;;;;4952151;28;87821;-66
2022/05/20 12:54:50;;;;;;;17.05;7.82;;;23.00;73.00;;;;;;4951055;28;88072;-67
2022/05/20 12:57:30;;;;;;;19.05;7.63;;;23.00;72.90;;;;;;4951223;28;89121;-66
2022/05/20 13:00:02;;;;;;;16.08;7.45;;;23.00;72.40;;;;;;4951856;28;88165;-66
2022/05/20 13:02:40;;;;;;;21.20;7.32;;;23.00;72.30;;;;;;4952193;28;87772;-66
2022/05/20 13:05:21;;;;;;;17.85;7.55;;;23.00;72.20;;;;;;4952414;28;88110;-66
2022/05/20 13:07:48;;;;;;;14.00;7.15;;;23.00;72.20;;;;;;4966760;28;87583;-66
2022/05/20 13:10:35;;;;;;;16.42;7.40;;;23.00;72.10;;;;;;4972085;28;87731;-66
2022/05/20 13:13:04;;;;;;;15.35;6.82;;;23.00;71.90;;;;;;4971414;28;88130;-66
2022/05/20 13:15:30;;;;;;;15.45;7.07;;;23.00;72.10;;;;;;4971055;28;86939;-67
2022/05/20 13:18:04;;;;;;;18.67;6.78;;;23.00;71.90;;;;;;4971325;28;88429;-66
2022/05/20 13:20:32;;;;;;;11.55;6.07;;;23.00;71.80;;;;;;4969433;28;91220;-66
2022/05/20 13:23:03;;;;;;;14.73;6.45;;;23.00;71.80;;;;;;4971031;28;88698;-67
2022/05/20 13:25:29;;;;;;;10.48;5.63;;;23.00;71.80;;;;;;4970848;28;87909;-66
2022/05/20 13:27:55;;;;;;;11.40;4.95;;;23.00;71.70;;;;;;4971446;28;88647;-67
2022/05/20 13:30:30;;;;;;;17.00;4.95;;;23.00;73.60;;;;;;4966807;28;87712;-66
2022/05/20 13:33:04;;;;;;;15.10;5.00;;;23.00;73.60;;;;;;4954467;28;87789;-66
2022/05/20 13:35:38;;;;;;;11.77;4.28;;;23.00;73.80;;;;;;4966776;28;88264;-66
2022/05/20 13:38:04;;;;;;;17.70;5.28;;;23.00;73.40;;;;;;4961083;28;87441;-66
2022/05/20 13:40:39;;;;;;;16.38;4.72;;;23.00;73.20;;;;;;4950837;28;87209;-65
2022/05/20 13:43:05;;;;;;;10.88;4.57;;;23.00;73.30;;;;;;4966295;28;87743;-66
2022/05/20 13:51:29;;;;;;;5.87;2.30;;;23.00;73.70;;;;;;4951016;28;89381;-66